createdAt,value
2023-01-13T00:01:17.117Z,13.80
2023-01-13T00:03:45.077Z,12.20
2023-01-13T00:06:21.684Z,12.20
2023-01-13T00:08:50.268Z,12.20
2023-01-13T00:11:18.404Z,12.10
2023-01-13T00:16:17.886Z,12.00
2023-01-13T00:21:19.170Z,12.00
2023-01-13T00:23:47.194Z,12.10
2023-01-13T00:26:19.699Z,12.00
2023-01-13T00:31:20.301Z,11.80
2023-01-13T00:33:49.301Z,11.80
2023-01-13T00:38:44.880Z,12.00
2023-01-13T00:41:22.429Z,12.00
2023-01-13T00:43:50.646Z,12.00
2023-01-13T00:46:20.716Z,12.00
2023-01-13T00:51:18.119Z,12.00
2023-01-13T00:53:47.894Z,12.00
2023-01-13T00:56:19.961Z,11.90
2023-01-13T01:01:24.918Z,12.10
2023-01-13T01:03:53.715Z,12.00
2023-01-13T01:06:24.020Z,11.90
2023-01-13T01:08:51.487Z,14.20
2023-01-13T01:11:22.428Z,11.80
2023-01-13T01:13:52.599Z,11.80
2023-01-13T01:16:23.484Z,11.80
2023-01-13T01:18:53.474Z,11.80
2023-01-13T01:21:22.012Z,11.70
2023-01-13T01:26:19.399Z,11.70
2023-01-13T01:31:18.692Z,11.60
2023-01-13T01:36:18.121Z,11.70
2023-01-13T01:41:20.144Z,11.90
2023-01-13T01:44:08.356Z,11.90
2023-01-13T01:46:44.075Z,13.70
2023-01-13T01:49:31.636Z,11.80
2023-01-13T01:52:15.132Z,11.80
2023-01-13T01:55:01.759Z,11.80
2023-01-13T01:57:39.890Z,11.70
2023-01-13T02:00:08.306Z,12.00
2023-01-13T02:02:45.272Z,11.70
2023-01-13T02:05:12.946Z,11.70
2023-01-13T02:07:42.644Z,11.70
2023-01-13T02:10:14.367Z,11.70
2023-01-13T02:12:43.740Z,11.70
2023-01-13T02:15:17.273Z,11.60
2023-01-13T02:18:16.783Z,11.60
2023-01-13T02:21:09.752Z,11.60
2023-01-13T02:24:33.260Z,11.60
2023-01-13T02:27:35.850Z,11.90
2023-01-13T02:30:27.864Z,14.40
2023-01-13T02:33:19.536Z,11.60
2023-01-13T02:36:13.935Z,11.60
2023-01-13T02:39:10.735Z,11.60
2023-01-13T02:42:19.235Z,11.60
2023-01-13T02:44:52.426Z,11.60
2023-01-13T02:47:23.193Z,11.60
2023-01-13T02:49:54.994Z,11.60
2023-01-13T02:52:46.004Z,11.80
2023-01-13T02:55:20.936Z,11.60
2023-01-13T02:57:50.052Z,11.60
2023-01-13T03:05:16.774Z,11.60
2023-01-13T03:07:57.689Z,11.50
2023-01-13T03:10:48.660Z,11.50
2023-01-13T03:16:09.793Z,11.50
2023-01-13T03:18:45.553Z,11.60
2023-01-13T03:23:51.742Z,11.50
2023-01-13T03:26:27.853Z,11.30
2023-01-13T03:29:02.480Z,11.30
2023-01-13T03:31:34.319Z,11.20
2023-01-13T03:34:13.213Z,11.10
2023-01-13T03:36:42.917Z,11.10
2023-01-13T03:39:14.859Z,11.00
2023-01-13T03:41:49.496Z,11.00
2023-01-13T03:44:25.167Z,10.90
2023-01-13T03:47:04.134Z,10.90
2023-01-13T03:49:34.907Z,10.90
2023-01-13T03:52:06.093Z,10.80
2023-01-13T03:54:37.023Z,10.80
2023-01-13T03:57:10.109Z,10.80
2023-01-13T03:59:41.939Z,10.80
2023-01-13T04:02:24.548Z,10.80
2023-01-13T04:04:59.584Z,10.80
2023-01-13T04:07:59.134Z,10.70
2023-01-13T04:10:34.781Z,10.80
2023-01-13T04:13:12.656Z,12.10
2023-01-13T04:15:42.408Z,10.70
2023-01-13T04:18:24.626Z,10.70
2023-01-13T04:20:53.381Z,10.70
2023-01-13T04:23:21.659Z,10.70
2023-01-13T04:25:49.577Z,10.70
2023-01-13T04:38:12.720Z,10.70
2023-01-13T04:55:25.431Z,10.70
2023-01-13T05:00:22.904Z,10.70
2023-01-13T05:02:51.352Z,10.70
2023-01-13T05:33:20.808Z,10.40
2023-01-13T05:46:05.836Z,10.30
2023-01-13T05:48:40.449Z,10.30
2023-01-13T05:51:09.426Z,10.30
2023-01-13T05:56:05.321Z,10.30
2023-01-13T06:01:05.161Z,10.30
2023-01-13T06:20:47.591Z,10.30
2023-01-13T06:30:50.519Z,10.30
2023-01-13T06:33:25.273Z,10.30
2023-01-13T06:36:01.591Z,10.30
2023-01-13T06:38:30.386Z,10.30
2023-01-13T06:45:54.924Z,10.20
2023-01-13T06:48:25.398Z,10.20
2023-01-13T06:53:20.886Z,10.20
2023-01-13T07:03:13.430Z,10.10
2023-01-13T07:05:42.412Z,10.20
2023-01-13T07:08:10.436Z,10.10
2023-01-13T07:13:24.264Z,10.10
2023-01-13T07:16:02.444Z,10.00
2023-01-13T07:18:32.061Z,10.00
2023-01-13T07:21:02.069Z,10.00
2023-01-13T07:23:45.693Z,9.90
2023-01-13T07:26:13.646Z,9.90
2023-01-13T07:28:44.482Z,9.80
2023-01-13T07:31:29.891Z,9.80
2023-01-13T07:46:39.031Z,9.70
2023-01-13T07:49:08.415Z,9.70
2023-01-13T07:51:39.593Z,12.30
2023-01-13T08:06:28.952Z,9.60
2023-01-13T08:26:17.312Z,9.70
2023-01-13T08:28:45.545Z,9.70
2023-01-13T08:31:16.401Z,9.70
2023-01-13T08:36:12.537Z,9.70
2023-01-13T08:38:41.285Z,9.70
2023-01-13T08:41:10.539Z,9.70
2023-01-13T08:51:06.441Z,9.70
2023-01-13T08:56:02.494Z,9.80
2023-01-13T08:58:39.017Z,9.80
2023-01-13T09:01:10.914Z,9.80
2023-01-13T09:34:47.489Z,10.20
2023-01-13T09:37:36.748Z,10.20
2023-01-13T09:40:33.970Z,10.20
2023-01-13T09:44:08.039Z,10.20
2023-01-13T09:47:32.440Z,10.10
2023-01-13T09:51:15.605Z,10.10
2023-01-13T09:59:37.042Z,10.00
2023-01-13T10:02:50.713Z,10.50
2023-01-13T10:05:27.578Z,10.00
2023-01-13T10:08:02.908Z,10.00
2023-01-13T10:10:48.031Z,10.00
2023-01-13T10:13:20.451Z,10.20
2023-01-13T10:15:54.937Z,10.30
2023-01-13T10:18:37.270Z,10.30
2023-01-13T10:23:47.066Z,10.40
2023-01-13T10:26:55.917Z,10.50
2023-01-13T10:29:26.582Z,10.60
2023-01-13T10:31:54.555Z,10.60
2023-01-13T10:34:23.734Z,10.70
2023-01-13T10:37:00.700Z,10.70
2023-01-13T10:39:28.166Z,10.70
2023-01-13T10:42:03.352Z,10.70
2023-01-13T10:44:30.239Z,11.50
2023-01-13T10:46:59.065Z,10.80
2023-01-13T10:49:32.972Z,10.70
2023-01-13T10:52:02.032Z,10.80
2023-01-13T10:54:29.672Z,10.70
2023-01-13T10:57:20.348Z,10.80
2023-01-13T10:59:48.007Z,10.80
2023-01-13T11:02:30.913Z,10.70
2023-01-13T11:10:24.544Z,10.80
2023-01-13T11:13:12.593Z,10.80
2023-01-13T11:15:44.862Z,10.90
2023-01-13T11:18:31.324Z,11.00
2023-01-13T11:21:00.374Z,10.90
2023-01-13T11:23:35.437Z,10.90
2023-01-13T11:26:11.269Z,11.00
2023-01-13T11:28:52.228Z,10.90
2023-01-13T11:31:32.440Z,11.10
2023-01-13T11:36:40.068Z,11.00
2023-01-13T11:39:21.378Z,11.00
2023-01-13T11:42:12.755Z,10.90
2023-01-13T11:45:07.428Z,10.90
2023-01-13T11:47:35.604Z,10.80
2023-01-13T11:50:02.819Z,10.70
2023-01-13T11:53:07.115Z,10.70
2023-01-13T11:55:50.034Z,10.60
2023-01-13T11:58:51.030Z,10.60
2023-01-13T12:01:53.920Z,10.60
2023-01-13T12:04:28.547Z,10.50
2023-01-13T12:07:25.576Z,10.40
2023-01-13T12:10:13.073Z,10.50
2023-01-13T12:12:45.353Z,10.40
2023-01-13T12:15:40.062Z,10.40
2023-01-13T12:18:39.755Z,10.40
2023-01-13T12:21:17.933Z,10.40
2023-01-13T12:23:57.942Z,10.40
2023-01-13T12:26:25.617Z,10.40
2023-01-13T12:29:19.810Z,10.40
2023-01-13T12:31:50.617Z,10.50
2023-01-13T12:34:41.934Z,10.50
2023-01-13T12:37:39.272Z,10.50
2023-01-13T12:40:51.635Z,10.40
2023-01-13T12:43:42.387Z,10.40
2023-01-13T12:46:21.715Z,10.40
2023-01-13T12:48:54.904Z,10.40
2023-01-13T12:51:25.111Z,10.30
2023-01-13T12:53:52.962Z,10.30
2023-01-13T12:56:38.567Z,10.20
2023-01-13T12:59:19.083Z,10.20
2023-01-13T13:01:48.655Z,10.00
2023-01-13T13:04:43.332Z,10.00
2023-01-13T13:07:19.152Z,10.00
2023-01-13T13:10:33.891Z,10.00
2023-01-13T13:13:20.747Z,10.00
2023-01-13T13:15:51.783Z,10.00
2023-01-13T13:21:09.167Z,10.10
2023-01-13T13:23:55.038Z,10.00
2023-01-13T13:26:39.594Z,10.00
2023-01-13T13:29:35.242Z,9.90
2023-01-13T13:32:23.914Z,9.80
2023-01-13T13:35:13.838Z,9.70
2023-01-13T13:38:09.598Z,9.60
2023-01-13T13:41:03.524Z,9.50
2023-01-13T13:43:57.332Z,9.50
2023-01-13T13:46:48.147Z,9.60
2023-01-13T13:49:46.365Z,9.60
2023-01-13T13:52:19.715Z,9.60
2023-01-13T13:54:51.955Z,9.70
2023-01-13T13:57:35.150Z,9.60
2023-01-13T14:00:27.416Z,9.80
2023-01-13T14:02:58.670Z,9.70
2023-01-13T14:05:33.783Z,9.80
2023-01-13T14:08:10.377Z,9.80
2023-01-13T14:10:40.132Z,9.90
2023-01-13T14:13:32.251Z,9.90
2023-01-13T14:16:05.440Z,10.00
2023-01-13T14:18:35.336Z,9.90
2023-01-13T14:21:19.564Z,10.00
2023-01-13T14:24:17.601Z,10.20
2023-01-13T14:29:18.439Z,10.40
2023-01-13T14:34:31.376Z,10.40
2023-01-13T14:37:00.666Z,10.40
2023-01-13T14:39:38.733Z,10.40
2023-01-13T14:42:12.929Z,10.40
2023-01-13T14:44:47.860Z,10.40
2023-01-13T14:47:19.806Z,10.60
2023-01-13T14:49:52.477Z,10.70
2023-01-13T14:52:24.464Z,10.60
2023-01-13T14:54:54.349Z,10.60
2023-01-13T14:57:25.291Z,10.60
2023-01-13T14:59:56.198Z,10.50
2023-01-13T15:02:29.672Z,10.60
2023-01-13T15:05:19.301Z,10.50
2023-01-13T15:07:49.931Z,10.50
2023-01-13T15:10:22.698Z,10.40
2023-01-13T15:12:52.562Z,10.40
2023-01-13T15:15:27.787Z,10.30
2023-01-13T15:17:54.819Z,10.30
2023-01-13T15:20:23.427Z,10.30
2023-01-13T15:22:51.646Z,10.20
2023-01-13T15:25:18.865Z,10.20
2023-01-13T15:27:50.205Z,10.10
2023-01-13T15:30:20.142Z,10.10
2023-01-13T15:32:48.166Z,10.00
2023-01-13T15:35:16.906Z,10.00
2023-01-13T15:37:45.467Z,9.90
2023-01-13T15:40:29.848Z,9.90
2023-01-13T15:43:15.644Z,9.90
2023-01-13T15:48:33.702Z,9.90
2023-01-13T15:51:02.983Z,11.10
2023-01-13T15:58:29.723Z,9.80
2023-01-13T16:05:51.866Z,9.80
2023-01-13T16:08:21.638Z,9.70
2023-01-13T16:10:49.862Z,9.70
2023-01-13T16:13:17.950Z,9.60
2023-01-13T16:15:48.592Z,9.70
2023-01-13T16:18:21.562Z,9.70
2023-01-13T16:23:20.142Z,9.70
2023-01-13T16:25:47.621Z,9.70
2023-01-13T16:28:22.943Z,9.70
2023-01-13T16:58:20.534Z,10.00
2023-01-13T17:00:48.490Z,10.00
2023-01-13T17:03:16.702Z,10.00
2023-01-13T17:05:46.779Z,10.10
2023-01-13T17:08:18.054Z,10.50
2023-01-13T17:13:17.343Z,10.00
2023-01-13T17:16:33.386Z,10.00
2023-01-13T17:30:44.247Z,9.80
2023-01-13T17:35:41.314Z,9.70
2023-01-13T17:40:37.242Z,9.60
2023-01-13T18:10:10.823Z,9.50
2023-01-13T18:23:35.891Z,9.50
2023-01-13T18:26:38.317Z,9.50
2023-01-13T18:34:14.630Z,9.60
2023-01-13T18:56:54.874Z,9.70
2023-01-13T18:59:29.571Z,9.80
2023-01-13T19:02:34.744Z,9.70
2023-01-13T19:12:31.069Z,9.70
2023-01-13T19:14:59.057Z,9.70
2023-01-13T19:17:27.416Z,9.70
2023-01-13T19:19:55.856Z,9.70
2023-01-13T19:22:27.430Z,9.70
2023-01-13T19:27:22.528Z,9.60
2023-01-13T19:29:52.354Z,9.70
2023-01-13T19:32:21.894Z,13.70
2023-01-13T19:37:19.575Z,9.60
2023-01-13T19:39:47.225Z,9.60
2023-01-13T19:50:15.355Z,9.60
2023-01-13T19:52:42.898Z,9.60
2023-01-13T19:55:12.433Z,9.70
2023-01-13T19:57:40.384Z,9.80
2023-01-13T20:00:08.975Z,10.30
2023-01-13T20:07:49.065Z,9.70
2023-01-13T20:10:17.848Z,10.40
2023-01-13T20:15:12.232Z,9.70
2023-01-13T20:20:09.702Z,9.80
2023-01-13T20:22:38.088Z,9.80
2023-01-13T20:25:06.254Z,9.80
2023-01-13T20:32:27.897Z,9.80
2023-01-13T20:34:54.777Z,9.80
2023-01-13T20:37:22.716Z,9.80
2023-01-13T20:39:49.842Z,9.60
2023-01-13T20:44:57.892Z,9.70
2023-01-13T20:52:20.517Z,9.60
2023-01-13T20:54:47.531Z,9.70
2023-01-13T20:57:14.504Z,8.70
2023-01-13T20:59:41.443Z,9.70
2023-01-13T21:02:13.161Z,9.60
2023-01-13T21:07:08.325Z,9.70
2023-01-13T21:09:35.872Z,9.60
2023-01-13T21:15:15.430Z,9.70
2023-01-13T21:20:33.209Z,9.70
2023-01-13T21:23:01.949Z,9.60
2023-01-13T21:25:29.752Z,9.60
2023-01-13T21:28:05.611Z,9.60
2023-01-13T21:37:55.903Z,9.60
2023-01-13T21:40:22.763Z,9.60
2023-01-13T21:48:22.201Z,9.70
2023-01-13T21:50:49.484Z,9.70
2023-01-13T21:53:17.667Z,9.60
2023-01-13T21:55:44.794Z,11.00
2023-01-13T21:58:14.311Z,9.70
2023-01-13T22:00:44.009Z,9.80
2023-01-13T22:03:12.999Z,9.80
2023-01-13T22:13:23.144Z,9.80
2023-01-13T22:18:20.311Z,9.70
2023-01-13T22:20:47.279Z,9.80
2023-01-13T22:28:09.426Z,9.60
2023-01-13T22:30:36.528Z,9.60
2023-01-13T22:33:03.664Z,10.40
2023-01-13T22:35:33.040Z,9.60
2023-01-13T22:38:00.176Z,9.60
2023-01-13T22:40:27.048Z,9.60
2023-01-13T22:42:54.083Z,9.60
2023-01-13T22:45:21.372Z,9.60
2023-01-13T22:47:49.671Z,9.60
2023-01-13T22:50:20.732Z,9.60
2023-01-13T23:00:19.141Z,9.60
2023-01-13T23:02:48.725Z,9.60
2023-01-13T23:15:08.208Z,9.50
2023-01-13T23:20:02.493Z,9.50
2023-01-13T23:24:56.661Z,9.60
2023-01-13T23:32:18.082Z,9.50
2023-01-13T23:34:44.959Z,9.60
2023-01-13T23:37:11.867Z,9.60
2023-01-13T23:42:06.037Z,9.60
2023-01-13T23:49:35.730Z,9.60
2023-01-13T23:52:06.009Z,9.60
2023-01-13T23:57:00.642Z,9.70
2023-01-13T23:59:27.572Z,9.70
